Time;durP1;ratioP1;P1;durP2;ratioP2;P2;SDS_P1;SDS_P2;PMS_P1;PMS_P2;Temp;Humidity;BMP_temperature;BMP_pressure;BME280_temperature;BME280_humidity;BME280_pressure;Samples;Min_cycle;Max_cycle;Signal;HPM_P1;HPM_P2
2023/02/02 00:01:01;;;;;;;132.40;32.80;;;;;;;-0.13;100.00;100372.60;102778;1290;599652;-79
2023/02/02 00:03:26;;;;;;;131.80;31.30;;;;;;;-0.11;100.00;100371.44;102868;1294;60673;-79
2023/02/02 00:05:53;;;;;;;145.30;32.80;;;;;;;-0.08;100.00;100372.11;102725;1292;60425;-79
2023/02/02 00:08:20;;;;;;;134.00;31.40;;;;;;;-0.06;100.00;100372.81;102949;1291;60365;-79
2023/02/02 00:14:32;;;;;;;129.50;31.30;;;;;;;0.02;100.00;100361.64;102840;1288;612746;-78
2023/02/02 00:16:58;;;;;;;125.40;31.00;;;;;;;0.05;100.00;100357.17;103075;1289;60437;-78
2023/02/02 00:19:28;;;;;;;128.20;33.30;;;;;;;0.07;100.00;100355.02;103026;1295;60422;-78
2023/02/02 00:21:55;;;;;;;124.60;31.30;;;;;;;0.08;100.00;100354.04;103193;1294;75707;-78
2023/02/02 00:24:21;;;;;;;106.40;29.80;;;;;;;0.08;100.00;100355.47;103110;1294;73249;-78
2023/02/02 00:26:52;;;;;;;120.70;29.90;;;;;;;0.10;100.00;100351.98;102917;1292;200937;-78
2023/02/02 00:29:24;;;;;;;117.90;29.30;;;;;;;0.13;100.00;100351.05;103397;1292;61265;-77
2023/02/02 00:31:50;;;;;;;115.80;30.60;;;;;;;0.15;100.00;100346.70;103457;1288;61456;-78
2023/02/02 00:34:32;;;;;;;108.00;28.30;;;;;;;0.17;100.00;100343.20;102834;1292;600658;-79
2023/02/02 00:36:58;;;;;;;109.00;30.10;;;;;;;0.14;100.00;100339.27;102904;1295;60896;-79
2023/02/02 00:39:28;;;;;;;113.90;28.80;;;;;;;0.15;100.00;100338.44;103040;1295;60384;-79
2023/02/02 00:41:54;;;;;;;105.90;27.30;;;;;;;0.17;100.00;100338.55;103459;1288;72284;-79
2023/02/02 00:47:04;;;;;;;98.60;27.20;;;;;;;0.22;100.00;100336.77;103266;1286;184111;-78
2023/02/02 00:49:30;;;;;;;105.80;27.80;;;;;;;0.22;100.00;100338.17;103315;1289;60724;-79
2023/02/02 00:51:55;;;;;;;98.40;26.50;;;;;;;0.23;100.00;100337.27;103500;1285;60414;-79
2023/02/02 00:54:21;;;;;;;94.20;26.50;;;;;;;0.25;100.00;100332.55;103858;1288;60340;-79
2023/02/02 00:56:47;;;;;;;109.40;27.60;;;;;;;0.26;100.00;100329.95;103590;1290;60456;-79
2023/02/02 00:59:12;;;;;;;96.50;26.10;;;;;;;0.24;100.00;100326.48;103489;1286;60422;-79
2023/02/02 01:01:38;;;;;;;81.10;23.50;;;;;;;0.22;100.00;100323.70;103562;1288;61581;-79
2023/02/02 01:04:04;;;;;;;87.10;24.60;;;;;;;0.24;100.00;100320.69;103626;1288;60511;-79
2023/02/02 01:06:30;;;;;;;89.60;25.50;;;;;;;0.24;100.00;100319.66;103432;1286;60448;-79
2023/02/02 01:08:55;;;;;;;79.70;23.00;;;;;;;0.24;100.00;100311.72;103571;1288;60408;-79
2023/02/02 01:11:21;;;;;;;77.10;23.60;;;;;;;0.26;100.00;100308.65;103173;1286;60345;-79
2023/02/02 01:17:05;;;;;;;85.10;24.00;;;;;;;0.29;100.00;100308.56;102952;1288;600208;-79
2023/02/02 01:19:30;;;;;;;82.70;22.40;;;;;;;0.28;100.00;100314.50;103003;1292;60546;-79
2023/02/02 01:21:56;;;;;;;79.90;21.90;;;;;;;0.28;100.00;100312.02;102972;1291;60392;-79
2023/02/02 01:27:59;;;;;;;79.00;23.90;;;;;;;0.34;100.00;100310.89;102846;1289;602958;-78
2023/02/02 01:30:25;;;;;;;80.10;22.80;;;;;;;0.34;100.00;100307.38;103026;1294;60699;-79
2023/02/02 01:32:53;;;;;;;81.60;22.30;;;;;;;0.34;100.00;100309.09;103038;1289;60406;-79
2023/02/02 01:35:18;;;;;;;71.20;22.30;;;;;;;0.34;100.00;100311.27;103054;1289;60380;-79
2023/02/02 01:37:44;;;;;;;84.00;23.10;;;;;;;0.34;100.00;100313.59;103157;1292;60406;-78
2023/02/02 01:40:10;;;;;;;75.70;22.00;;;;;;;0.34;100.00;100314.92;103030;1294;187849;-78
2023/02/02 01:42:36;;;;;;;73.20;22.00;;;;;;;0.34;100.00;100317.05;103233;1285;60412;-78
2023/02/02 01:45:04;;;;;;;85.30;22.90;;;;;;;0.33;100.00;100317.01;103311;1285;60408;-78
2023/02/02 01:47:35;;;;;;;81.50;23.60;;;;;;;0.33;100.00;100319.41;103289;1289;74089;-78
2023/02/02 01:50:03;;;;;;;73.80;21.10;;;;;;;0.32;100.00;100321.44;103430;1290;73867;-78
2023/02/02 01:52:32;;;;;;;73.00;21.70;;;;;;;0.32;100.00;100320.70;103440;1286;62343;-78
2023/02/02 01:55:07;;;;;;;69.80;20.90;;;;;;;0.32;100.00;100325.11;103355;1286;60764;-78
2023/02/02 01:57:32;;;;;;;72.30;20.30;;;;;;;0.32;100.00;100325.45;103396;1290;74514;-78
2023/02/02 02:00:00;;;;;;;66.90;19.80;;;;;;;0.33;100.00;100325.52;103397;1286;60418;-78
2023/02/02 02:02:28;;;;;;;71.40;20.40;;;;;;;0.33;100.00;100327.29;103571;1285;73652;-78
2023/02/02 02:04:54;;;;;;;73.60;20.90;;;;;;;0.34;100.00;100324.46;103449;1285;62354;-78
2023/02/02 02:10:38;;;;;;;60.80;19.00;;;;;;;0.37;100.00;100329.81;102883;1290;600333;-79
2023/02/02 02:13:05;;;;;;;65.10;21.00;;;;;;;0.36;100.00;100328.71;102855;1296;60409;-78
2023/02/02 02:18:24;;;;;;;58.00;19.10;;;;;;;0.37;100.00;100327.66;103126;1291;71868;-78
2023/02/02 02:27:10;;;;;;;68.00;18.40;;;;;;;0.33;100.00;100325.81;103502;1289;60428;-78
2023/02/02 02:30:11;;;;;;;66.10;19.60;;;;;;;0.31;100.00;100327.77;103433;1290;61938;-78
2023/02/02 02:32:40;;;;;;;59.70;18.70;;;;;;;0.29;100.00;100328.48;103290;1290;73501;-78
2023/02/02 02:35:13;;;;;;;57.80;19.60;;;;;;;0.29;100.00;100327.31;103116;1292;72348;-78
2023/02/02 02:37:45;;;;;;;78.70;21.30;;;;;;;0.31;100.00;100327.36;103335;1285;73953;-78
2023/02/02 02:40:54;;;;;;;73.10;20.10;;;;;;;0.32;100.00;100324.58;103424;1286;63003;-78
2023/02/02 02:43:29;;;;;;;74.00;22.20;;;;;;;0.31;100.00;100329.36;102334;1297;61496;-78
2023/02/02 02:45:56;;;;;;;71.80;20.40;;;;;;;0.31;100.00;100327.97;102259;1297;74196;-79
2023/02/02 02:48:21;;;;;;;74.50;21.40;;;;;;;0.31;100.00;100333.64;102310;1298;60610;-78
2023/02/02 02:50:47;;;;;;;81.80;22.10;;;;;;;0.29;100.00;100336.65;105584;1297;58135;-79
2023/02/02 02:53:22;;;;;;;73.70;20.90;;;;;;;0.32;100.00;100333.39;105725;1298;58272;-79
2023/02/02 02:56:11;;;;;;;77.20;22.60;;;;;;;0.34;100.00;100341.96;105717;1297;61120;-79
2023/02/02 02:58:50;;;;;;;69.30;20.60;;;;;;;0.37;100.00;100344.58;105706;1297;74139;-79
2023/02/02 03:01:18;;;;;;;80.40;21.90;;;;;;;0.41;100.00;100346.77;105706;1297;74320;-79
2023/02/02 03:04:11;;;;;;;67.10;20.10;;;;;;;0.46;100.00;100346.97;105718;1297;73381;-79
2023/02/02 03:06:46;;;;;;;78.90;21.50;;;;;;;0.51;100.00;100346.25;105710;1297;62174;-79
2023/02/02 03:09:18;;;;;;;77.50;22.60;;;;;;;0.54;100.00;100348.11;105737;1297;61488;-79
2023/02/02 03:11:44;;;;;;;69.40;21.40;;;;;;;0.56;100.00;100348.02;105534;1298;70800;-79
2023/02/02 03:14:10;;;;;;;74.10;20.90;;;;;;;0.59;100.00;100346.21;105720;1297;58377;-79
2023/02/02 03:16:36;;;;;;;71.70;21.80;;;;;;;0.61;100.00;100351.78;105657;1298;58274;-79
2023/02/02 03:19:03;;;;;;;73.80;21.20;;;;;;;0.60;100.00;100351.86;105757;1297;58163;-79
2023/02/02 03:21:29;;;;;;;76.50;21.60;;;;;;;0.61;100.00;100351.62;106582;1286;58109;-80
2023/02/02 03:23:55;;;;;;;74.50;21.40;;;;;;;0.63;100.00;100351.63;106736;1286;58027;-79
2023/02/02 03:26:20;;;;;;;70.90;21.20;;;;;;;0.66;100.00;100354.08;106697;1286;58360;-79
2023/02/02 03:28:47;;;;;;;71.00;22.20;;;;;;;0.67;100.00;100357.58;106413;1286;58267;-79
2023/02/02 03:31:12;;;;;;;70.60;22.00;;;;;;;0.69;100.00;100359.77;106704;1286;58038;-79
2023/02/02 03:33:38;;;;;;;71.40;21.80;;;;;;;0.69;100.00;100363.80;106604;1286;58193;-79
2023/02/02 03:36:04;;;;;;;68.50;21.20;;;;;;;0.70;100.00;100364.86;106426;1286;58035;-79
2023/02/02 03:38:30;;;;;;;74.00;20.60;;;;;;;0.71;100.00;100368.66;106444;1286;58166;-79
2023/02/02 03:40:55;;;;;;;73.40;22.60;;;;;;;0.71;100.00;100367.27;106675;1286;58507;-79
2023/02/02 03:43:22;;;;;;;70.40;21.30;;;;;;;0.73;100.00;100370.58;106710;1285;59168;-79
2023/02/02 03:45:57;;;;;;;75.90;21.00;;;;;;;0.74;100.00;100369.65;106760;1285;58020;-79
2023/02/02 03:48:23;;;;;;;62.50;20.20;;;;;;;0.75;100.00;100374.34;106730;1286;73475;-79
2023/02/02 03:50:48;;;;;;;71.20;21.90;;;;;;;0.76;100.00;100372.10;106724;1285;58242;-79
2023/02/02 03:53:14;;;;;;;72.90;22.50;;;;;;;0.74;100.00;100374.98;106712;1286;58066;-79
2023/02/02 03:55:40;;;;;;;63.40;19.60;;;;;;;0.74;100.00;100373.60;106750;1286;58093;-79
2023/02/02 03:58:06;;;;;;;60.10;18.90;;;;;;;0.75;100.00;100376.95;106781;1285;58024;-79
2023/02/02 04:00:31;;;;;;;63.00;19.90;;;;;;;0.72;100.00;100378.48;106749;1285;58187;-79
2023/02/02 04:02:57;;;;;;;70.20;19.90;;;;;;;0.74;100.00;100379.61;106716;1286;61876;-79
2023/02/02 04:05:23;;;;;;;68.30;20.90;;;;;;;0.76;100.00;100382.58;106730;1285;58034;-79
2023/02/02 04:07:48;;;;;;;69.80;19.80;;;;;;;0.74;100.00;100383.97;106349;1286;58392;-79
2023/02/02 04:10:14;;;;;;;69.40;20.20;;;;;;;0.74;100.00;100384.58;106730;1285;58287;-79
2023/02/02 04:12:39;;;;;;;73.30;21.00;;;;;;;0.74;100.00;100382.86;106676;1285;58179;-79
2023/02/02 04:15:06;;;;;;;71.50;21.90;;;;;;;0.77;100.00;100387.67;106735;1285;58153;-79
2023/02/02 04:17:31;;;;;;;63.80;20.10;;;;;;;0.78;100.00;100390.38;106705;1286;73909;-79
2023/02/02 04:19:57;;;;;;;73.40;21.40;;;;;;;0.79;100.00;100395.39;106699;1286;58127;-80
2023/02/02 04:22:24;;;;;;;77.00;20.60;;;;;;;0.79;100.00;100395.02;106327;1286;58340;-80
2023/02/02 04:24:50;;;;;;;83.00;21.30;;;;;;;0.80;100.00;100394.10;106411;1286;58155;-79
2023/02/02 04:27:15;;;;;;;68.80;20.60;;;;;;;0.80;100.00;100394.59;106666;1286;58132;-80
2023/02/02 04:29:40;;;;;;;71.00;19.80;;;;;;;0.81;100.00;100400.06;106637;1286;58106;-79
2023/02/02 04:32:06;;;;;;;67.70;19.50;;;;;;;0.82;100.00;100397.58;106727;1286;58273;-80
2023/02/02 04:34:31;;;;;;;81.80;21.30;;;;;;;0.84;100.00;100397.38;106346;1286;58354;-79
2023/02/02 04:36:57;;;;;;;70.40;21.00;;;;;;;0.85;100.00;100399.70;106717;1286;58229;-79
2023/02/02 04:39:22;;;;;;;70.50;20.70;;;;;;;0.88;100.00;100403.54;106293;1286;58258;-80
2023/02/02 04:41:48;;;;;;;83.30;21.10;;;;;;;0.87;100.00;100404.84;106699;1286;58124;-79
2023/02/02 04:44:14;;;;;;;71.40;21.10;;;;;;;0.88;100.00;100408.33;106694;1286;58161;-79
2023/02/02 04:46:41;;;;;;;73.80;21.40;;;;;;;0.85;100.00;100407.08;106675;1286;60088;-79
2023/02/02 04:49:11;;;;;;;71.30;20.40;;;;;;;0.87;100.00;100403.54;106659;1286;72657;-80
2023/02/02 04:51:37;;;;;;;67.70;21.20;;;;;;;0.88;100.00;100408.68;106551;1287;72710;-80
2023/02/02 04:54:04;;;;;;;72.20;20.90;;;;;;;0.89;100.00;100416.45;106583;1287;58130;-79
2023/02/02 04:56:30;;;;;;;75.10;19.60;;;;;;;0.91;100.00;100416.41;106544;1287;61804;-79
2023/02/02 04:58:55;;;;;;;68.20;20.30;;;;;;;0.92;100.00;100413.51;106629;1286;58071;-80
2023/02/02 05:01:21;;;;;;;88.50;21.60;;;;;;;0.90;100.00;100414.20;106596;1286;58678;-79
2023/02/02 05:03:48;;;;;;;69.10;19.60;;;;;;;0.92;100.00;100411.34;106684;1286;58266;-80
2023/02/02 05:06:15;;;;;;;64.00;19.30;;;;;;;0.91;100.00;100413.42;106658;1286;59114;-80
2023/02/02 05:08:42;;;;;;;61.20;19.00;;;;;;;0.93;100.00;100418.20;106663;1286;58212;-79
2023/02/02 05:11:13;;;;;;;68.30;19.40;;;;;;;0.95;100.00;100421.27;106689;1286;58093;-79
2023/02/02 05:13:39;;;;;;;60.80;18.50;;;;;;;0.96;100.00;100428.85;106674;1286;73794;-79
2023/02/02 05:16:05;;;;;;;63.10;19.20;;;;;;;0.98;100.00;100433.80;106600;1286;58150;-79
2023/02/02 05:18:31;;;;;;;67.50;20.30;;;;;;;0.99;100.00;100435.94;106505;1286;58275;-79
2023/02/02 05:21:00;;;;;;;61.00;18.50;;;;;;;1.00;100.00;100436.46;106636;1286;58547;-79
2023/02/02 05:23:26;;;;;;;74.60;19.90;;;;;;;1.01;100.00;100436.67;106679;1286;60099;-79
2023/02/02 05:25:53;;;;;;;67.40;18.70;;;;;;;1.02;100.00;100440.51;106648;1286;58149;-79
2023/02/02 05:28:19;;;;;;;78.80;20.90;;;;;;;1.02;100.00;100440.27;106629;1286;58623;-80
2023/02/02 05:30:44;;;;;;;66.30;19.20;;;;;;;1.05;100.00;100444.27;106605;1286;58161;-79
2023/02/02 05:33:10;;;;;;;61.50;18.50;;;;;;;1.07;100.00;100444.10;106612;1287;58521;-79
2023/02/02 05:35:36;;;;;;;76.00;24.70;;;;;;;1.08;100.00;100445.17;106659;1286;58026;-80
2023/02/02 05:38:01;;;;;;;83.10;32.80;;;;;;;1.09;100.00;100446.20;106644;1286;58244;-79
2023/02/02 05:40:27;;;;;;;63.70;21.70;;;;;;;1.12;100.00;100449.77;106656;1286;58223;-79
2023/02/02 05:42:52;;;;;;;76.00;23.10;;;;;;;1.15;100.00;100448.34;106636;1286;58167;-79
2023/02/02 05:45:18;;;;;;;75.00;20.80;;;;;;;1.16;100.00;100454.26;106631;1286;58132;-79
2023/02/02 05:47:43;;;;;;;65.70;19.20;;;;;;;1.17;100.00;100454.05;106548;1287;58176;-79
2023/02/02 05:50:09;;;;;;;61.50;18.60;;;;;;;1.19;100.00;100455.04;106633;1286;58299;-79
2023/02/02 05:52:36;;;;;;;83.80;24.70;;;;;;;1.22;100.00;100459.98;106687;1286;58148;-79
2023/02/02 05:55:02;;;;;;;67.20;18.10;;;;;;;1.22;100.00;100465.05;106661;1286;60953;-79
2023/02/02 05:57:28;;;;;;;62.50;17.30;;;;;;;1.25;100.00;100466.92;106640;1286;58050;-78
2023/02/02 05:59:54;;;;;;;60.90;17.40;;;;;;;1.27;100.00;100464.80;106634;1286;58124;-80
2023/02/02 06:02:19;;;;;;;57.70;17.00;;;;;;;1.30;100.00;100469.02;106636;1286;58254;-79
2023/02/02 06:04:45;;;;;;;54.60;16.50;;;;;;;1.31;100.00;100469.87;106638;1286;58364;-78
2023/02/02 06:07:12;;;;;;;44.80;14.70;;;;;;;1.31;100.00;100471.88;106386;1286;58054;-79
2023/02/02 06:09:37;;;;;;;50.30;16.50;;;;;;;1.31;100.00;100473.30;106653;1286;58015;-79
2023/02/02 06:12:04;;;;;;;47.90;13.70;;;;;;;1.34;100.00;100473.80;106724;1286;58166;-79
2023/02/02 06:14:29;;;;;;;53.90;16.80;;;;;;;1.34;100.00;100477.80;106518;1287;60806;-79
2023/02/02 06:16:55;;;;;;;48.30;15.90;;;;;;;1.34;100.00;100475.77;106692;1286;58043;-79
2023/02/02 06:19:20;;;;;;;44.50;15.60;;;;;;;1.34;100.00;100478.63;106575;1287;58606;-79
2023/02/02 06:21:47;;;;;;;43.80;14.40;;;;;;;1.36;100.00;100482.52;106589;1287;58291;-79
2023/02/02 06:24:12;;;;;;;47.00;15.60;;;;;;;1.40;100.00;100488.27;106547;1287;58459;-81
2023/02/02 06:26:38;;;;;;;52.00;16.60;;;;;;;1.42;100.00;100491.34;106642;1287;58182;-80
2023/02/02 06:29:04;;;;;;;45.60;15.30;;;;;;;1.42;100.00;100491.51;106584;1287;72668;-80
2023/02/02 06:31:29;;;;;;;48.60;15.20;;;;;;;1.43;100.00;100495.67;106344;1289;58315;-78
2023/02/02 06:33:57;;;;;;;51.90;15.90;;;;;;;1.47;100.00;100492.95;106318;1288;59306;-83
2023/02/02 06:36:24;;;;;;;52.00;16.90;;;;;;;1.52;100.00;100491.23;106171;1288;58270;-83
2023/02/02 06:38:51;;;;;;;48.80;15.80;;;;;;;1.58;100.00;100491.96;106229;1288;58883;-84
2023/02/02 06:41:19;;;;;;;50.80;16.30;;;;;;;1.60;100.00;100494.92;106385;1288;74539;-84
2023/02/02 06:43:45;;;;;;;56.10;16.80;;;;;;;1.64;100.00;100499.08;106229;1288;73307;-84
2023/02/02 06:46:12;;;;;;;63.70;18.80;;;;;;;1.68;100.00;100501.09;106399;1288;59206;-83
2023/02/02 06:55:57;;;;;;;65.20;19.60;;;;;;;1.35;100.00;100510.13;102918;1289;600565;-82
2023/02/02 06:58:22;;;;;;;79.10;20.40;;;;;;;1.39;100.00;100510.89;103251;1295;62362;-83
2023/02/02 07:00:49;;;;;;;69.60;21.40;;;;;;;1.43;100.00;100514.38;103490;1291;60376;-82
2023/02/02 07:03:15;;;;;;;68.20;20.00;;;;;;;1.49;100.00;100515.52;103256;1290;60421;-83
2023/02/02 07:05:41;;;;;;;70.30;20.60;;;;;;;1.56;100.00;100518.23;103274;1291;60420;-83
2023/02/02 07:08:06;;;;;;;68.70;20.10;;;;;;;1.63;100.00;100518.23;102697;1292;186206;-83
2023/02/02 07:10:32;;;;;;;72.00;19.90;;;;;;;1.69;100.00;100520.21;103548;1286;60369;-83
2023/02/02 07:12:57;;;;;;;80.40;20.50;;;;;;;1.65;100.00;100522.40;103515;1289;60428;-83
2023/02/02 07:15:23;;;;;;;78.40;20.60;;;;;;;1.68;100.00;100522.63;103357;1289;60440;-83
2023/02/02 07:17:48;;;;;;;80.30;20.70;;;;;;;1.71;100.00;100522.17;103355;1289;60404;-83
2023/02/02 07:20:14;;;;;;;75.30;20.30;;;;;;;1.77;100.00;100522.44;103358;1290;60550;-83
2023/02/02 07:22:40;;;;;;;67.80;19.00;;;;;;;1.85;100.00;100522.80;103095;1292;60358;-82
2023/02/02 07:25:07;;;;;;;61.80;18.10;;;;;;;1.88;100.00;100524.23;103392;1299;60274;-84
2023/02/02 07:27:33;;;;;;;66.50;19.00;;;;;;;1.92;100.00;100523.86;103285;1291;60411;-83
2023/02/02 07:33:17;;;;;;;62.90;18.50;;;;;;;2.02;100.00;100520.00;102902;1295;600109;-85
2023/02/02 07:35:42;;;;;;;59.90;19.10;;;;;;;2.06;100.00;100523.36;103237;1296;60429;-84
2023/02/02 07:38:08;;;;;;;57.60;17.80;;;;;;;2.10;100.00;100521.20;103209;1289;60326;-84
2023/02/02 07:40:35;;;;;;;60.50;17.00;;;;;;;2.17;100.00;100518.30;103235;1288;60750;-85
2023/02/02 07:43:01;;;;;;;64.30;18.50;;;;;;;2.20;100.00;100514.52;103355;1294;60298;-85
2023/02/02 07:45:27;;;;;;;67.20;18.40;;;;;;;2.26;100.00;100525.80;103213;1295;60380;-84
2023/02/02 07:47:57;;;;;;;57.20;17.60;;;;;;;2.34;100.00;100526.11;103098;1290;296398;-84
2023/02/02 07:50:24;;;;;;;55.80;17.80;;;;;;;2.39;100.00;100522.64;103341;1292;72691;-83
2023/02/02 07:52:51;;;;;;;64.30;18.60;;;;;;;2.45;100.00;100522.65;103240;1293;73491;-84
2023/02/02 07:55:18;;;;;;;77.80;20.40;;;;;;;2.51;100.00;100519.62;103321;1290;71284;-84
2023/02/02 07:57:44;;;;;;;60.70;18.90;;;;;;;2.58;100.00;100524.10;103544;1290;61939;-84
2023/02/02 08:00:31;;;;;;;59.60;19.00;;;;;;;2.62;100.00;100525.11;103452;1287;60412;-83
2023/02/02 08:02:57;;;;;;;61.30;19.10;;;;;;;2.70;100.00;100527.83;103150;1289;72998;-84
2023/02/02 08:05:44;;;;;;;73.10;21.50;;;;;;;2.77;100.00;100528.34;103213;1290;60403;-84
2023/02/02 08:08:09;;;;;;;62.70;17.90;;;;;;;2.87;100.00;100531.48;102702;1293;73512;-84
2023/02/02 08:10:35;;;;;;;60.50;18.60;;;;;;;2.97;100.00;100523.71;102664;1295;60411;-83
2023/02/02 08:13:02;;;;;;;60.10;17.80;;;;;;;3.10;100.00;100526.98;102334;1302;60454;-83
2023/02/02 08:15:28;;;;;;;57.20;18.70;;;;;;;3.25;100.00;100530.34;102348;1297;60428;-83
2023/02/02 08:17:53;;;;;;;51.80;16.60;;;;;;;3.38;100.00;100530.10;102353;1293;60415;-83
2023/02/02 08:20:22;;;;;;;57.00;16.50;;;;;;;3.44;100.00;100530.93;102691;1293;60583;-83
2023/02/02 08:22:48;;;;;;;54.70;17.10;;;;;;;3.42;100.00;100529.05;102163;1310;60855;-84
2023/02/02 08:25:14;;;;;;;53.00;16.60;;;;;;;3.44;100.00;100523.48;102467;1296;60391;-83
2023/02/02 08:27:47;;;;;;;53.50;16.30;;;;;;;3.50;100.00;100525.45;102352;1304;60577;-83
2023/02/02 08:30:13;;;;;;;55.10;15.80;;;;;;;3.61;100.00;100529.06;103003;1297;73541;-84
2023/02/02 08:36:14;;;;;;;53.50;15.80;;;;;;;3.63;100.00;100534.98;102846;1293;601471;-84
2023/02/02 08:38:40;;;;;;;46.30;14.50;;;;;;;3.53;100.00;100536.45;102625;1303;60400;-83
2023/02/02 08:41:08;;;;;;;49.40;14.50;;;;;;;3.49;100.00;100533.81;102917;1297;60418;-84
2023/02/02 08:43:34;;;;;;;48.70;15.60;;;;;;;3.38;100.00;100530.79;102861;1292;74741;-84
2023/02/02 08:46:00;;;;;;;46.00;14.60;;;;;;;3.39;100.00;100532.11;102646;1292;60618;-82
2023/02/02 08:48:28;;;;;;;50.40;15.40;;;;;;;3.45;100.00;100532.23;102501;1297;60514;-83
2023/02/02 08:50:56;;;;;;;47.00;14.80;;;;;;;3.59;100.00;100532.39;102056;1289;838882;-83
2023/02/02 08:53:24;;;;;;;46.60;15.30;;;;;;;3.72;100.00;100533.98;102960;1292;60353;-83
2023/02/02 08:56:19;;;;;;;43.30;14.10;;;;;;;3.80;100.00;100529.91;103094;1295;72292;-84
2023/02/02 08:58:46;;;;;;;45.50;14.90;;;;;;;3.85;100.00;100532.83;102951;1293;73468;-84
2023/02/02 09:01:14;;;;;;;49.00;14.70;;;;;;;3.88;100.00;100532.52;102631;1294;71393;-83
2023/02/02 09:03:42;;;;;;;45.50;16.00;;;;;;;3.92;100.00;100531.46;102946;1297;60950;-83
2023/02/02 09:06:16;;;;;;;46.80;15.60;;;;;;;3.82;100.00;100526.24;102949;1294;60364;-84
2023/02/02 09:08:44;;;;;;;44.80;15.40;;;;;;;3.81;100.00;100519.16;102739;1300;73419;-83
2023/02/02 09:11:30;;;;;;;43.00;15.40;;;;;;;3.82;100.00;100519.80;102690;1298;72272;-84
2023/02/02 09:14:02;;;;;;;50.20;17.30;;;;;;;3.87;100.00;100514.23;102842;1299;60418;-84
2023/02/02 09:16:30;;;;;;;54.60;18.80;;;;;;;3.99;100.00;100510.89;102875;1292;60319;-84
2023/02/02 09:18:56;;;;;;;53.40;18.60;;;;;;;4.20;100.00;100510.63;102583;1292;60382;-84
2023/02/02 09:25:07;;;;;;;39.40;14.60;;;;;;;4.85;100.00;100505.29;102620;1300;72414;-84
2023/02/02 09:27:39;;;;;;;46.30;15.20;;;;;;;5.02;100.00;100509.71;102081;1303;72814;-84
2023/02/02 09:30:26;;;;;;;51.10;15.30;;;;;;;5.27;100.00;100507.08;102737;1295;60905;-84
2023/02/02 09:32:56;;;;;;;49.50;15.60;;;;;;;5.55;100.00;100503.35;102343;1298;60378;-84
2023/02/02 09:35:24;;;;;;;44.50;14.40;;;;;;;5.71;100.00;100502.05;102306;1298;72727;-83
2023/02/02 09:37:49;;;;;;;43.60;14.80;;;;;;;5.90;100.00;100500.11;101981;1300;60428;-84
2023/02/02 09:40:19;;;;;;;45.00;14.20;;;;;;;5.98;100.00;100502.63;102154;1300;60558;-84
2023/02/02 09:43:19;;;;;;;34.20;12.60;;;;;;;6.03;100.00;100500.23;102260;1299;62163;-84
2023/02/02 09:45:54;;;;;;;44.00;14.50;;;;;;;6.07;100.00;100499.83;102277;1300;61255;-84
2023/02/02 09:48:32;;;;;;;44.80;14.80;;;;;;;6.21;100.00;100500.21;102078;1303;74255;-84
2023/02/02 09:57:42;;;;;;;44.90;13.00;;;;;;;6.45;100.00;100502.56;102635;1298;62558;-85
2023/02/02 10:13:04;;;;;;;44.20;14.20;;;;;;;6.57;100.00;100495.39;103741;1288;71002;-84
2023/02/02 10:22:18;;;;;;;35.70;11.70;;;;;;;6.47;100.00;100495.16;103818;1282;62517;-84
2023/02/02 10:24:44;;;;;;;37.30;12.50;;;;;;;6.56;100.00;100495.63;103870;1282;60895;-82
2023/02/02 10:28:06;;;;;;;35.70;13.20;;;;;;;6.71;100.00;100489.83;103603;1283;60462;-79
2023/02/02 10:34:42;;;;;;;40.90;13.30;;;;;;;7.09;100.00;100485.04;103706;1286;73942;-84
2023/02/02 10:37:46;;;;;;;41.40;14.20;;;;;;;7.02;100.00;100483.11;102932;1292;62739;-84
2023/02/02 10:40:30;;;;;;;46.80;14.00;;;;;;;6.93;100.00;100479.61;102569;1295;61339;-83
2023/02/02 10:43:45;;;;;;;45.40;14.50;;;;;;;6.78;100.00;100486.92;102554;1300;72461;-83
2023/02/02 10:46:19;;;;;;;41.20;13.80;;;;;;;6.68;100.00;100483.23;102466;1299;73105;-83
2023/02/02 10:49:16;;;;;;;49.00;14.50;;;;;;;6.73;100.00;100487.03;102587;1301;72958;-83
2023/02/02 10:52:12;;;;;;;45.30;14.90;;;;;;;6.80;100.00;100485.99;102783;1300;61317;-83
2023/02/02 10:54:50;;;;;;;37.00;13.40;;;;;;;6.78;100.00;100485.27;102707;1294;60632;-84
2023/02/02 10:57:31;;;;;;;47.70;15.70;;;;;;;6.82;100.00;100481.80;102877;1299;73392;-84
2023/02/02 11:00:29;;;;;;;41.10;15.60;;;;;;;6.85;100.00;100483.95;106048;1294;74744;-85
2023/02/02 11:03:27;;;;;;;44.00;13.90;;;;;;;6.89;100.00;100484.28;105912;1295;73050;-85
2023/02/02 11:08:57;;;;;;;37.20;13.80;;;;;;;6.98;100.00;100483.66;106045;1293;59999;-84
2023/02/02 11:11:48;;;;;;;36.80;13.50;;;;;;;6.98;100.00;100485.38;106059;1294;74179;-85
2023/02/02 11:14:45;;;;;;;39.00;13.60;;;;;;;7.00;100.00;100489.32;106446;1288;73505;-86
2023/02/02 11:17:22;;;;;;;37.60;12.10;;;;;;;6.86;100.00;100492.11;106256;1289;72585;-86
2023/02/02 11:19:55;;;;;;;37.70;13.10;;;;;;;6.80;100.00;100497.14;106214;1290;60892;-85
2023/02/02 11:22:43;;;;;;;37.00;13.90;;;;;;;6.64;100.00;100493.23;106282;1289;58747;-85
2023/02/02 11:25:32;;;;;;;40.00;13.40;;;;;;;6.63;100.00;100490.30;106275;1289;73853;-86
2023/02/02 11:28:01;;;;;;;37.60;12.30;;;;;;;6.66;100.00;100486.39;106329;1289;74222;-85
2023/02/02 11:30:40;;;;;;;33.90;11.60;;;;;;;6.79;100.00;100487.85;106251;1289;71435;-84
2023/02/02 11:39:30;;;;;;;29.70;11.40;;;;;;;6.54;100.00;100492.14;106301;1289;73262;-85
2023/02/02 11:51:39;;;;;;;;;;;;;;;6.31;100.00;100503.55;106297;1289;59889;-85
2023/02/02 11:57:42;;;;;;;31.60;10.30;;;;;;;6.22;100.00;100513.13;106937;1283;73234;-85
2023/02/02 12:15:57;;;;;;;29.10;10.70;;;;;;;6.46;100.00;100518.64;107179;1281;71681;-85
2023/02/02 12:18:57;;;;;;;28.70;11.10;;;;;;;6.48;100.00;100524.91;107173;1281;61077;-84
2023/02/02 12:24:59;;;;;;;26.60;10.60;;;;;;;6.70;100.00;100529.02;107222;1281;72698;-84
2023/02/02 13:03:42;;;;;;;33.90;10.40;;;;;;;5.64;100.00;100554.75;107155;1281;71373;-85
2023/02/02 13:13:07;;;;;;;27.10;9.10;;;;;;;5.54;100.00;100563.01;107155;1281;72828;-84
2023/02/02 13:15:58;;;;;;;28.60;8.80;;;;;;;5.49;100.00;100559.54;107241;1281;73533;-83
2023/02/02 13:18:50;;;;;;;31.20;9.00;;;;;;;5.44;100.00;100557.73;107185;1281;73268;-84
2023/02/02 13:21:35;;;;;;;25.70;9.50;;;;;;;5.43;100.00;100558.91;107165;1281;61997;-84
2023/02/02 13:24:24;;;;;;;27.40;9.90;;;;;;;5.36;100.00;100561.34;107166;1281;60518;-83
2023/02/02 13:33:41;;;;;;;36.40;11.40;;;;;;;5.05;100.00;100567.58;107077;1282;72595;-83
2023/02/02 13:42:31;;;;;;;26.40;9.80;;;;;;;4.91;100.00;100574.31;107227;1281;71328;-83
2023/02/02 13:52:10;;;;;;;23.30;8.40;;;;;;;4.59;100.00;100576.05;107169;1281;60987;-83
2023/02/02 13:55:00;;;;;;;25.90;9.10;;;;;;;4.50;100.00;100574.52;107100;1281;61171;-83
2023/02/02 13:57:54;;;;;;;24.10;9.90;;;;;;;4.46;100.00;100578.30;106960;1282;73101;-83
2023/02/02 14:00:42;;;;;;;66.40;25.90;;;;;;;4.40;100.00;100579.39;107138;1281;74285;-83
2023/02/02 14:30:07;;;;;;;19.30;7.30;;;;;;;3.50;100.00;100594.59;107227;1281;71783;-83
2023/02/02 14:33:10;;;;;;;34.70;11.90;;;;;;;3.39;100.00;100594.96;107181;1281;74121;-84
2023/02/02 14:39:36;;;;;;;20.90;8.10;;;;;;;3.29;100.00;100598.21;107148;1281;60981;-83
2023/02/02 16:33:48;;;;;;;45.60;15.60;;;;;;;0.90;100.00;100705.16;107329;1280;72079;-83
2023/02/02 16:36:22;;;;;;;42.40;15.80;;;;;;;0.88;100.00;100705.83;106961;1280;58511;-82
2023/02/02 16:38:52;;;;;;;37.70;14.80;;;;;;;0.89;100.00;100707.30;107345;1280;59785;-82